Terminal Aerodrome Forecast
Issued by NWS Quad Cities IA IL

Home | Current Version | Previous Version | Text Only | Print | Product List | Glossary On
Versions: 1 2 3 4 5 6 7 8 9 10 11 12 13 14 15 16 17 18 19 20 21 22 23 24 25 26
000
FTUS43 KDVN 312300
TAFMLI
TAF
KMLI 312323Z 0100/0124 17009KT P6SM SCT100 SCT250
     FM010900 19011KT 6SM BR VCSH BKN050
      TEMPO 0111/0114 4SM -TSRA BKN030CB
     FM011600 26013KT P6SM BKN035=

USA.gov is the U.S. government's official web portal to all federal, state and local government web resources and services.